createdAt,value
2024-04-11T00:00:25.053Z,0.00
2024-04-11T00:01:25.339Z,0.00
2024-04-11T00:02:25.249Z,0.00
2024-04-11T00:03:25.332Z,0.00
2024-04-11T00:04:25.409Z,0.00
2024-04-11T00:05:25.300Z,0.00
2024-04-11T00:06:25.324Z,0.00
2024-04-11T00:07:25.379Z,0.00
2024-04-11T00:08:25.470Z,0.00
2024-04-11T00:09:25.468Z,0.00
2024-04-11T00:10:25.522Z,0.00
2024-04-11T00:11:25.658Z,0.00
2024-04-11T00:12:25.738Z,0.00
2024-04-11T00:13:25.680Z,0.00
2024-04-11T00:14:25.784Z,0.00
2024-04-11T00:15:25.778Z,0.00
2024-04-11T00:16:25.912Z,0.00
2024-04-11T00:17:26.014Z,0.00
2024-04-11T00:18:26.265Z,0.00
2024-04-11T00:19:25.963Z,0.00
2024-04-11T00:20:26.020Z,0.00
2024-04-11T00:21:26.072Z,0.00
2024-04-11T00:22:26.118Z,0.00
2024-04-11T00:23:26.207Z,0.00
2024-04-11T00:24:26.217Z,0.00
2024-04-11T00:25:26.272Z,0.00
2024-04-11T00:26:26.330Z,0.00
2024-04-11T00:27:26.375Z,0.00
2024-04-11T00:28:26.507Z,0.00
2024-04-11T00:29:26.490Z,0.00
2024-04-11T00:30:26.527Z,0.00
2024-04-11T00:31:26.560Z,0.00
2024-04-11T00:32:26.884Z,0.00
2024-04-11T00:33:26.918Z,0.00
2024-04-11T00:34:26.917Z,0.00
2024-04-11T00:35:26.826Z,0.00
2024-04-11T00:36:26.810Z,0.00
2024-04-11T00:37:27.246Z,0.00
2024-04-11T00:38:26.995Z,0.00
2024-04-11T00:39:26.954Z,0.00
2024-04-11T00:40:27.004Z,0.00
2024-04-11T00:41:27.079Z,0.00
2024-04-11T00:42:27.100Z,0.00
2024-04-11T00:43:27.154Z,0.00
2024-04-11T00:44:27.259Z,0.00
2024-04-11T00:45:27.251Z,0.00
2024-04-11T00:46:27.301Z,0.00
2024-04-11T00:47:27.479Z,0.00
2024-04-11T00:48:27.522Z,0.00
2024-04-11T00:49:27.571Z,0.00
2024-04-11T00:50:27.563Z,0.00
2024-04-11T00:51:27.557Z,0.00
2024-04-11T00:52:27.606Z,0.00
2024-04-11T00:53:27.658Z,0.00
2024-04-11T00:54:27.693Z,0.00
2024-04-11T00:55:27.741Z,0.00
2024-04-11T00:56:27.833Z,0.00
2024-04-11T00:57:27.838Z,0.00
2024-04-11T00:58:27.906Z,0.00
2024-04-11T00:59:27.982Z,0.00
2024-04-11T01:00:27.992Z,0.00
2024-04-11T01:01:28.090Z,0.00
2024-04-11T01:02:28.162Z,0.00
2024-04-11T01:03:28.340Z,0.00
2024-04-11T01:04:28.351Z,0.00
2024-04-11T01:05:28.313Z,0.00
2024-04-11T01:06:28.282Z,0.00
2024-04-11T01:07:28.337Z,0.00
2024-04-11T01:08:28.403Z,0.00
2024-04-11T01:09:28.451Z,0.00
2024-04-11T01:10:28.504Z,0.00
2024-04-11T01:11:28.593Z,0.00
2024-04-11T01:12:28.580Z,0.00
2024-04-11T01:13:28.635Z,0.00
2024-04-11T01:14:28.680Z,0.00
2024-04-11T01:15:28.767Z,0.00
2024-04-11T01:16:28.777Z,0.00
2024-04-11T01:17:29.041Z,0.00
2024-04-11T01:18:29.010Z,0.00
2024-04-11T01:19:28.917Z,0.00
2024-04-11T01:20:29.039Z,0.00
2024-04-11T01:21:29.019Z,0.00
2024-04-11T01:22:29.072Z,0.00
2024-04-11T01:23:29.176Z,0.00
2024-04-11T01:24:29.186Z,0.00
2024-04-11T01:25:29.218Z,0.00
2024-04-11T01:26:29.361Z,0.00
2024-04-11T01:27:29.319Z,0.00
2024-04-11T01:28:29.370Z,0.00
2024-04-11T01:29:29.457Z,0.00
2024-04-11T01:30:29.495Z,0.00
2024-04-11T01:31:29.517Z,0.00
2024-04-11T01:32:29.837Z,0.00
2024-04-11T01:33:29.728Z,0.00
2024-04-11T01:34:29.854Z,0.00
2024-04-11T01:35:29.755Z,0.00
2024-04-11T01:36:29.771Z,0.00
2024-04-11T01:37:29.820Z,0.00
2024-04-11T01:38:29.866Z,0.00
2024-04-11T01:39:29.898Z,0.00
2024-04-11T01:40:29.948Z,0.00
2024-04-11T01:41:30.059Z,0.00
2024-04-11T01:42:30.059Z,0.00
2024-04-11T01:43:30.103Z,0.00
2024-04-11T01:44:30.616Z,0.00
2024-04-11T01:45:30.199Z,0.00
2024-04-11T01:46:30.306Z,0.00
2024-04-11T01:47:30.451Z,0.00
2024-04-11T01:48:30.428Z,0.00
2024-04-11T01:49:30.399Z,0.00
2024-04-11T01:50:30.480Z,0.00
2024-04-11T01:51:30.494Z,0.00
2024-04-11T01:52:30.546Z,0.00
2024-04-11T01:53:30.613Z,0.00
2024-04-11T01:54:30.639Z,0.00
2024-04-11T01:55:30.691Z,0.00
2024-04-11T01:56:30.744Z,0.00
2024-04-11T01:57:30.787Z,0.00
2024-04-11T01:58:30.832Z,0.00
2024-04-11T01:59:30.911Z,0.00
2024-04-11T02:00:30.933Z,0.00
2024-04-11T02:01:30.991Z,0.00
2024-04-11T02:02:31.102Z,0.00
2024-04-11T02:03:31.254Z,0.00
2024-04-11T02:04:31.161Z,0.00
2024-04-11T02:05:31.211Z,0.00
2024-04-11T02:06:31.226Z,0.00
2024-04-11T02:07:31.274Z,0.00
2024-04-11T02:08:31.382Z,0.00
2024-04-11T02:09:31.373Z,0.00
2024-04-11T02:10:31.417Z,0.00
2024-04-11T02:11:31.503Z,0.00
2024-04-11T02:12:31.658Z,0.00
2024-04-11T02:13:31.569Z,0.00
2024-04-11T02:14:31.704Z,0.00
2024-04-11T02:15:31.672Z,0.00
2024-04-11T02:16:31.749Z,0.00
2024-04-11T02:17:31.875Z,0.00
2024-04-11T02:18:31.935Z,0.00
2024-04-11T02:19:31.856Z,0.00
2024-04-11T02:20:31.970Z,0.00
2024-04-11T02:21:31.958Z,0.00
2024-04-11T02:22:32.009Z,0.00
2024-04-11T02:23:32.071Z,0.00
2024-04-11T02:24:32.121Z,0.00
2024-04-11T02:25:32.153Z,0.00
2024-04-11T02:26:32.219Z,0.00
2024-04-11T02:27:32.254Z,0.00
2024-04-11T02:28:32.299Z,0.00
2024-04-11T02:29:32.376Z,0.00
2024-04-11T02:30:32.411Z,0.00
2024-04-11T02:31:32.450Z,0.00
2024-04-11T02:32:32.656Z,0.00
2024-04-11T02:33:32.737Z,0.00
2024-04-11T02:34:32.890Z,0.00
2024-04-11T02:35:32.686Z,0.00
2024-04-11T02:36:32.692Z,0.00
2024-04-11T02:37:32.737Z,0.00
2024-04-11T02:38:32.823Z,0.00
2024-04-11T02:39:32.834Z,0.00
2024-04-11T02:40:32.904Z,0.00
2024-04-11T02:41:32.999Z,0.00
2024-04-11T02:42:32.982Z,0.00
2024-04-11T02:43:33.030Z,0.00
2024-04-11T02:44:33.120Z,0.00
2024-04-11T02:45:33.130Z,0.00
2024-04-11T02:46:33.180Z,0.00
2024-04-11T02:47:33.355Z,0.00
2024-04-11T02:48:33.360Z,0.00
2024-04-11T02:49:33.323Z,0.00
2024-04-11T02:50:33.414Z,0.00
2024-04-11T02:51:33.422Z,0.00
2024-04-11T02:52:33.468Z,0.00
2024-04-11T02:53:33.584Z,0.00
2024-04-11T02:54:33.567Z,0.00
2024-04-11T02:55:33.610Z,0.00
2024-04-11T02:56:33.744Z,0.00
2024-04-11T02:57:33.720Z,0.00
2024-04-11T02:58:33.757Z,0.00
2024-04-11T02:59:33.829Z,0.00
2024-04-11T03:00:33.952Z,0.00
2024-04-11T03:01:34.019Z,0.00
2024-04-11T03:02:34.001Z,0.00
2024-04-11T03:03:34.265Z,0.00
2024-04-11T03:04:34.153Z,0.00
2024-04-11T03:05:34.156Z,0.00
2024-04-11T03:06:34.150Z,0.00
2024-04-11T03:07:34.208Z,0.00
2024-04-11T03:08:34.263Z,0.00
2024-04-11T03:09:34.290Z,0.00
2024-04-11T03:10:34.342Z,0.00
2024-04-11T03:11:34.477Z,0.00
2024-04-11T03:12:34.522Z,0.00
2024-04-11T03:13:34.488Z,0.00
2024-04-11T03:14:34.574Z,0.00
2024-04-11T03:15:34.581Z,0.00
2024-04-11T03:16:34.672Z,0.00
2024-04-11T03:17:34.781Z,0.00
2024-04-11T03:18:36.967Z,0.00
2024-04-11T03:19:34.776Z,0.00
2024-04-11T03:20:34.877Z,0.00
2024-04-11T03:21:34.875Z,0.00
2024-04-11T03:22:34.926Z,0.00
2024-04-11T03:23:34.995Z,0.00
2024-04-11T03:24:35.030Z,0.00
2024-04-11T03:25:35.067Z,0.00
2024-04-11T03:26:35.146Z,0.00
2024-04-11T03:27:35.184Z,0.00
2024-04-11T03:28:35.219Z,0.00
2024-04-11T03:29:35.284Z,0.00
2024-04-11T03:30:35.315Z,0.00
2024-04-11T03:31:37.688Z,0.00
2024-04-11T03:32:35.749Z,0.00
2024-04-11T03:33:35.732Z,0.00
2024-04-11T03:34:35.562Z,0.00
2024-04-11T03:35:35.568Z,0.00
2024-04-11T03:36:35.608Z,0.00
2024-04-11T03:37:35.655Z,0.00
2024-04-11T03:38:35.871Z,0.00
2024-04-11T03:39:35.751Z,0.00
2024-04-11T03:40:35.805Z,0.00
2024-04-11T03:41:35.885Z,0.00
2024-04-11T03:42:35.909Z,0.00
2024-04-11T03:43:35.942Z,0.00
2024-04-11T03:44:36.084Z,0.00
2024-04-11T03:45:36.044Z,0.00
2024-04-11T03:46:36.148Z,0.00
2024-04-11T03:47:36.244Z,0.00
2024-04-11T03:48:36.401Z,0.00
2024-04-11T03:49:36.234Z,0.00
2024-04-11T03:50:36.332Z,0.00
2024-04-11T03:51:36.342Z,0.00
2024-04-11T03:52:36.378Z,0.00
2024-04-11T03:53:36.477Z,0.00
2024-04-11T03:54:36.489Z,0.00
2024-04-11T03:55:36.518Z,0.00
2024-04-11T03:56:36.647Z,0.00
2024-04-11T03:57:36.620Z,0.00
2024-04-11T03:58:36.672Z,0.00
2024-04-11T03:59:36.732Z,0.00
2024-04-11T04:00:36.774Z,0.00
2024-04-11T04:01:36.850Z,0.00
2024-04-11T04:02:36.984Z,0.00
2024-04-11T04:03:37.163Z,0.00
2024-04-11T04:04:36.997Z,0.00
2024-04-11T04:05:37.054Z,0.00
2024-04-11T04:06:37.322Z,0.00
2024-04-11T04:07:38.626Z,0.00
2024-04-11T04:08:37.354Z,0.00
2024-04-11T04:09:37.199Z,0.00
2024-04-11T04:10:37.252Z,0.00
2024-04-11T04:11:37.502Z,0.00
2024-04-11T04:12:37.623Z,0.00
2024-04-11T04:13:37.432Z,0.00
2024-04-11T04:14:37.471Z,0.00
2024-04-11T04:15:37.490Z,0.00
2024-04-11T04:16:37.632Z,0.00
2024-04-11T04:17:37.746Z,0.00
2024-04-11T04:18:37.720Z,0.00
2024-04-11T04:19:37.688Z,0.00
2024-04-11T04:20:37.751Z,0.00
2024-04-11T04:21:37.804Z,0.00
2024-04-11T04:22:37.835Z,0.00
2024-04-11T04:23:37.930Z,0.00
2024-04-11T04:24:37.930Z,0.00
2024-04-11T04:25:39.809Z,0.00
2024-04-11T04:26:38.296Z,0.00
2024-04-11T04:27:38.067Z,0.00
2024-04-11T04:28:38.121Z,0.00
2024-04-11T04:29:38.199Z,0.00
2024-04-11T04:30:38.213Z,0.00
2024-04-11T04:31:38.259Z,0.00
2024-04-11T04:32:38.417Z,0.00
2024-04-11T04:33:38.570Z,0.00
2024-04-11T04:34:38.507Z,0.00
2024-04-11T04:35:38.479Z,0.00
2024-04-11T04:36:38.508Z,5.63
2024-04-11T04:37:38.554Z,5.63
2024-04-11T04:38:38.619Z,5.63
2024-04-11T04:39:38.648Z,5.63
2024-04-11T04:40:38.698Z,5.63
2024-04-11T04:41:38.999Z,5.63
2024-04-11T04:42:38.799Z,11.25
2024-04-11T04:43:38.840Z,11.25
2024-04-11T04:44:38.890Z,11.25
2024-04-11T04:45:38.944Z,11.25
2024-04-11T04:46:38.986Z,11.25
2024-04-11T04:47:39.158Z,11.25
2024-04-11T04:48:39.262Z,16.88
2024-04-11T04:49:39.143Z,16.88
2024-04-11T04:50:41.631Z,16.88
2024-04-11T04:51:39.229Z,22.50
2024-04-11T04:52:39.301Z,22.50
2024-04-11T04:53:39.389Z,22.50
2024-04-11T04:54:39.385Z,28.13
2024-04-11T04:55:39.420Z,28.13
2024-04-11T04:56:39.514Z,28.13
2024-04-11T04:57:39.522Z,28.13
2024-04-11T04:58:39.569Z,28.13
2024-04-11T04:59:39.612Z,33.75
2024-04-11T05:00:39.743Z,33.75
2024-04-11T05:01:39.712Z,33.75
2024-04-11T05:02:39.870Z,33.75
2024-04-11T05:03:40.069Z,33.75
2024-04-11T05:04:39.905Z,33.75
2024-04-11T05:05:39.939Z,39.38
2024-04-11T05:06:39.964Z,39.38
2024-04-11T05:07:40.004Z,39.38
2024-04-11T05:08:40.071Z,39.38
2024-04-11T05:09:40.100Z,45.00
2024-04-11T05:10:40.158Z,45.00
2024-04-11T05:11:40.298Z,45.00
2024-04-11T05:12:40.324Z,45.00
2024-04-11T05:13:40.312Z,45.00
2024-04-11T05:14:40.525Z,45.00
2024-04-11T05:15:40.409Z,45.00
2024-04-11T05:16:40.556Z,50.63
2024-04-11T05:17:40.557Z,50.63
2024-04-11T05:18:40.623Z,50.63
2024-04-11T05:19:40.590Z,50.63
2024-04-11T05:20:40.693Z,50.63
2024-04-11T05:21:41.057Z,50.63
2024-04-11T05:22:40.737Z,50.63
2024-04-11T05:23:40.854Z,50.63
2024-04-11T05:24:40.828Z,56.25
2024-04-11T05:25:40.875Z,56.25
2024-04-11T05:26:40.937Z,56.25
2024-04-11T05:27:40.983Z,56.25
2024-04-11T05:28:41.596Z,56.25
2024-04-11T05:29:41.130Z,56.25
2024-04-11T05:30:41.140Z,56.25
2024-04-11T05:31:41.172Z,56.25
2024-04-11T05:32:41.373Z,61.88
2024-04-11T05:33:41.525Z,61.88
2024-04-11T05:34:41.593Z,61.88
2024-04-11T05:35:41.386Z,61.88
2024-04-11T05:36:42.456Z,61.88
2024-04-11T05:37:41.462Z,67.50
2024-04-11T05:38:41.591Z,67.50
2024-04-11T05:39:41.560Z,67.50
2024-04-11T05:40:41.607Z,67.50
2024-04-11T05:41:41.745Z,67.50
2024-04-11T05:42:41.705Z,73.13
2024-04-11T05:43:41.756Z,73.13
2024-04-11T05:44:41.832Z,73.13
2024-04-11T05:45:41.870Z,73.13
2024-04-11T05:46:41.954Z,78.75
2024-04-11T05:47:42.109Z,78.75
2024-04-11T05:48:42.114Z,78.75
2024-04-11T05:49:42.048Z,84.38
2024-04-11T05:50:42.110Z,84.38
2024-04-11T05:51:42.152Z,84.38
2024-04-11T05:52:42.204Z,90.00
2024-04-11T05:53:42.283Z,90.00
2024-04-11T05:54:42.307Z,90.00
2024-04-11T05:55:42.344Z,95.63
2024-04-11T05:56:42.579Z,95.63
2024-04-11T05:57:42.440Z,101.25
2024-04-11T05:58:42.492Z,101.25
2024-04-11T05:59:42.562Z,101.25
2024-04-11T06:00:42.689Z,106.88
2024-04-11T06:01:42.742Z,106.88
2024-04-11T06:02:42.736Z,112.50
2024-04-11T06:03:42.746Z,112.50
2024-04-11T06:04:42.911Z,112.50
2024-04-11T06:05:42.882Z,118.13
2024-04-11T06:06:42.893Z,118.13
2024-04-11T06:07:42.940Z,118.13
2024-04-11T06:08:43.038Z,123.75
2024-04-11T06:09:43.036Z,118.13
2024-04-11T06:10:43.098Z,118.13
2024-04-11T06:11:43.270Z,123.75
2024-04-11T06:12:43.231Z,123.75
2024-04-11T06:13:43.238Z,129.38
2024-04-11T06:14:43.317Z,129.38
2024-04-11T06:15:43.450Z,129.38
2024-04-11T06:16:43.403Z,140.63
2024-04-11T06:17:43.606Z,146.25
2024-04-11T06:18:43.595Z,151.88
2024-04-11T06:19:43.522Z,163.13
2024-04-11T06:20:43.593Z,168.75
2024-04-11T06:21:43.624Z,180.00
2024-04-11T06:22:43.671Z,191.25
2024-04-11T06:23:43.770Z,196.88
2024-04-11T06:24:43.779Z,202.50
2024-04-11T06:25:43.828Z,213.75
2024-04-11T06:26:43.903Z,213.75
2024-04-11T06:27:43.921Z,219.38
2024-04-11T06:28:43.972Z,219.38
2024-04-11T06:29:44.192Z,213.75
2024-04-11T06:30:44.086Z,213.75
2024-04-11T06:31:44.141Z,213.75
2024-04-11T06:32:44.327Z,213.75
2024-04-11T06:33:44.643Z,219.38
2024-04-11T06:34:44.436Z,219.38
2024-04-11T06:35:44.397Z,225.00
2024-04-11T06:36:44.369Z,225.00
2024-04-11T06:37:44.423Z,225.00
2024-04-11T06:38:44.500Z,225.00
2024-04-11T06:39:44.533Z,225.00
2024-04-11T06:40:44.598Z,225.00
2024-04-11T06:41:44.671Z,230.63
2024-04-11T06:42:44.673Z,230.63
2024-04-11T06:43:44.725Z,236.25
2024-04-11T06:44:44.793Z,241.88
2024-04-11T06:45:44.862Z,241.88
2024-04-11T06:46:44.905Z,241.88
2024-04-11T06:47:50.331Z,247.50
2024-04-11T06:48:45.162Z,247.50
2024-04-11T06:49:45.031Z,253.13
2024-04-11T06:50:45.138Z,258.75
2024-04-11T06:51:45.136Z,258.75
2024-04-11T06:52:45.246Z,258.75
2024-04-11T06:53:45.275Z,264.38
2024-04-11T06:54:45.302Z,270.00
2024-04-11T06:55:45.328Z,270.00
2024-04-11T06:56:45.419Z,275.63
2024-04-11T06:57:45.432Z,281.25
2024-04-11T06:58:45.479Z,281.25
2024-04-11T06:59:45.587Z,286.88
2024-04-11T07:00:45.631Z,292.50
2024-04-11T07:01:45.639Z,303.75
2024-04-11T07:02:45.711Z,309.38
2024-04-11T07:03:45.768Z,320.63
2024-04-11T07:04:45.787Z,331.88
2024-04-11T07:05:45.849Z,343.13
2024-04-11T07:06:46.875Z,354.38
2024-04-11T07:07:45.938Z,371.25
2024-04-11T07:08:46.011Z,376.88
2024-04-11T07:09:46.074Z,388.13
2024-04-11T07:10:46.115Z,393.75
2024-04-11T07:11:46.169Z,399.38
2024-04-11T07:12:46.285Z,399.38
2024-04-11T07:13:46.256Z,410.63
2024-04-11T07:14:46.347Z,421.88
2024-04-11T07:15:46.360Z,427.50
2024-04-11T07:16:46.546Z,438.75
2024-04-11T07:17:46.504Z,444.38
2024-04-11T07:18:46.836Z,444.38
2024-04-11T07:19:46.570Z,444.38
2024-04-11T07:20:46.652Z,444.38
2024-04-11T07:21:46.672Z,433.13
2024-04-11T07:22:46.725Z,427.50
2024-04-11T07:23:46.912Z,416.25
2024-04-11T07:24:46.829Z,410.63
2024-04-11T07:25:46.890Z,399.38
2024-04-11T07:26:46.959Z,393.75
2024-04-11T07:27:47.007Z,388.13
2024-04-11T07:28:47.070Z,388.13
2024-04-11T07:29:47.173Z,388.13
2024-04-11T07:30:47.147Z,388.13
2024-04-11T07:31:47.198Z,388.13
2024-04-11T07:32:47.401Z,388.13
2024-04-11T07:33:47.385Z,388.13
2024-04-11T07:34:47.363Z,399.38
2024-04-11T07:35:47.421Z,393.75
2024-04-11T07:36:47.469Z,399.38
2024-04-11T07:37:47.522Z,399.38
2024-04-11T07:38:47.690Z,410.63
2024-04-11T07:39:47.633Z,416.25
2024-04-11T07:40:47.673Z,427.50
2024-04-11T07:41:48.559Z,433.13
2024-04-11T07:42:47.784Z,444.38
2024-04-11T07:43:47.841Z,450.00
2024-04-11T07:44:47.931Z,461.25
2024-04-11T07:45:47.939Z,472.50
2024-04-11T07:46:56.704Z,478.13
2024-04-11T07:47:56.664Z,483.75
2024-04-11T07:48:48.175Z,483.75
2024-04-11T07:49:48.626Z,495.00
2024-04-11T07:50:48.248Z,489.38
2024-04-11T07:51:48.264Z,483.75
2024-04-11T07:52:48.315Z,483.75
2024-04-11T07:53:48.616Z,472.50
2024-04-11T07:54:49.228Z,466.88
2024-04-11T07:55:48.477Z,461.25
2024-04-11T07:56:48.574Z,450.00
2024-04-11T07:57:48.578Z,444.38
2024-04-11T07:58:48.635Z,444.38
2024-04-11T08:00:48.937Z,450.00
2024-04-11T08:01:48.937Z,450.00
2024-04-11T08:02:48.941Z,455.63
2024-04-11T08:03:49.010Z,461.25
2024-04-11T08:04:48.959Z,466.88
2024-04-11T08:05:49.057Z,478.13
2024-04-11T08:07:49.120Z,478.13
2024-04-11T08:08:49.189Z,478.13
2024-04-11T08:09:49.248Z,466.88
2024-04-11T08:10:49.362Z,461.25
2024-04-11T08:11:49.355Z,455.63
2024-04-11T08:12:49.384Z,455.63
2024-04-11T08:13:49.439Z,455.63
2024-04-11T08:14:49.543Z,461.25
2024-04-11T08:15:49.564Z,461.25
2024-04-11T08:16:49.697Z,461.25
2024-04-11T08:17:49.721Z,461.25
2024-04-11T08:18:49.717Z,450.00
2024-04-11T08:19:56.680Z,433.13
2024-04-11T08:20:49.899Z,427.50
2024-04-11T08:21:49.872Z,421.88
2024-04-11T08:22:49.924Z,410.63
2024-04-11T08:23:50.021Z,405.00
2024-04-11T08:24:50.035Z,405.00
2024-04-11T08:25:50.088Z,388.13
2024-04-11T08:26:50.193Z,382.50
2024-04-11T08:27:50.198Z,382.50
2024-04-11T08:28:50.254Z,382.50
2024-04-11T08:29:50.424Z,382.50
2024-04-11T08:30:50.362Z,388.13
2024-04-11T08:32:50.688Z,405.00
2024-04-11T08:33:50.738Z,416.25
2024-04-11T08:34:50.622Z,421.88
2024-04-11T08:35:50.691Z,433.13
2024-04-11T08:37:50.746Z,461.25
2024-04-11T08:38:50.962Z,478.13
2024-04-11T08:39:50.854Z,495.00
2024-04-11T08:40:50.921Z,511.88
2024-04-11T08:41:51.017Z,528.75
2024-04-11T08:42:51.033Z,562.50
2024-04-11T08:43:51.074Z,596.25
2024-04-11T08:44:51.191Z,618.75
2024-04-11T08:45:51.201Z,630.00
2024-04-11T08:46:51.270Z,652.50
2024-04-11T08:47:51.379Z,669.38
2024-04-11T08:48:51.460Z,680.63
2024-04-11T08:49:52.366Z,686.25
2024-04-11T08:50:51.556Z,691.88
2024-04-11T08:51:51.547Z,691.88
2024-04-11T08:52:51.591Z,675.00
2024-04-11T08:54:00.642Z,658.13
2024-04-11T08:54:51.693Z,646.88
2024-04-11T08:55:51.761Z,635.63
2024-04-11T08:56:51.844Z,635.63
2024-04-11T08:57:51.864Z,635.63
2024-04-11T08:58:51.924Z,630.00
2024-04-11T08:59:52.023Z,618.75
2024-04-11T09:00:52.044Z,607.50
2024-04-11T09:01:52.085Z,601.88
2024-04-11T09:02:52.689Z,601.88
2024-04-11T09:03:52.235Z,596.25
2024-04-11T09:05:00.396Z,607.50
2024-04-11T09:05:53.792Z,607.50
2024-04-11T09:06:52.371Z,618.75
2024-04-11T09:07:52.425Z,624.38
2024-04-11T09:08:52.593Z,624.38
2024-04-11T09:09:52.552Z,630.00
2024-04-11T09:10:52.635Z,635.63
2024-04-11T09:11:52.710Z,641.25
2024-04-11T09:12:52.709Z,641.25
2024-04-11T09:13:52.773Z,635.63
2024-04-11T09:14:52.922Z,624.38
2024-04-11T09:15:52.947Z,613.13
2024-04-11T09:16:52.935Z,601.88
2024-04-11T09:17:53.191Z,590.63
2024-04-11T09:18:53.054Z,568.13
2024-04-11T09:19:53.106Z,540.00
2024-04-11T09:20:53.224Z,511.88
2024-04-11T09:21:53.214Z,483.75
2024-04-11T09:22:56.571Z,466.88
2024-04-11T09:23:53.377Z,444.38
2024-04-11T09:27:44.761Z,444.38
2024-04-11T09:28:44.822Z,455.63
2024-04-11T09:29:44.932Z,472.50
2024-04-11T09:30:44.923Z,483.75
2024-04-11T09:31:44.985Z,489.38
2024-04-11T09:32:45.111Z,483.75
2024-04-11T09:33:45.260Z,478.13
2024-04-11T09:34:45.592Z,472.50
2024-04-11T09:35:45.250Z,472.50
2024-04-11T09:36:45.282Z,478.13
2024-04-11T09:37:45.324Z,483.75
2024-04-11T09:38:45.403Z,483.75
2024-04-11T09:39:45.452Z,489.38
2024-04-11T09:40:45.486Z,489.38
2024-04-11T09:41:45.592Z,489.38
2024-04-11T09:42:45.610Z,495.00
2024-04-11T09:43:45.665Z,506.25
2024-04-11T09:44:45.760Z,517.50
2024-04-11T09:45:45.777Z,523.13
2024-04-11T09:46:47.051Z,540.00
2024-04-11T09:47:45.972Z,551.25
2024-04-11T09:49:46.000Z,579.38
2024-04-11T09:50:46.115Z,585.00
2024-04-11T09:51:46.116Z,590.63
2024-04-11T09:52:49.544Z,601.88
2024-04-11T09:53:46.243Z,613.13
2024-04-11T09:54:46.290Z,624.38
2024-04-11T09:55:46.341Z,630.00
2024-04-11T09:56:46.467Z,635.63
2024-04-11T09:57:46.887Z,646.88
2024-04-11T09:58:46.518Z,658.13
2024-04-11T09:59:47.685Z,658.13
2024-04-11T10:00:46.647Z,652.50
2024-04-11T10:01:46.678Z,635.63
2024-04-11T10:02:47.011Z,624.38
2024-04-11T10:04:29.492Z,590.63
2024-04-11T10:05:29.564Z,562.50
2024-04-11T10:06:29.593Z,540.00
2024-04-11T10:07:29.642Z,534.38
2024-04-11T10:08:29.730Z,523.13
2024-04-11T10:09:29.758Z,528.75
2024-04-11T10:10:29.812Z,534.38
2024-04-11T10:11:29.924Z,534.38
2024-04-11T10:12:30.148Z,540.00
2024-04-11T10:13:29.994Z,540.00
2024-04-11T10:14:30.098Z,551.25
2024-04-11T10:15:30.910Z,556.88
2024-04-11T10:16:30.154Z,573.75
2024-04-11T10:17:30.438Z,585.00
2024-04-11T10:18:30.384Z,601.88
2024-04-11T10:19:30.458Z,607.50
2024-04-11T10:20:30.386Z,607.50
2024-04-11T10:21:37.147Z,607.50
2024-04-11T10:22:30.501Z,601.88
2024-04-11T10:23:30.809Z,596.25
2024-04-11T10:24:31.466Z,590.63
2024-04-11T10:25:30.676Z,579.38
2024-04-11T10:26:32.005Z,568.13
2024-04-11T10:27:30.796Z,551.25
2024-04-11T10:28:30.844Z,523.13
2024-04-11T10:29:30.908Z,506.25
2024-04-11T10:30:30.953Z,483.75
2024-04-11T10:31:31.013Z,461.25
2024-04-11T10:32:31.179Z,438.75
2024-04-11T10:33:31.675Z,421.88
2024-04-11T10:34:31.186Z,410.63
2024-04-11T10:35:31.350Z,405.00
2024-04-11T10:36:31.296Z,405.00
2024-04-11T10:37:31.581Z,410.63
2024-04-11T10:38:31.422Z,421.88
2024-04-11T10:39:31.467Z,444.38
2024-04-11T10:40:31.539Z,461.25
2024-04-11T10:41:31.598Z,483.75
2024-04-11T10:42:31.652Z,500.63
2024-04-11T10:43:31.696Z,517.50
2024-04-11T10:44:31.786Z,534.38
2024-04-11T10:45:31.810Z,551.25
2024-04-11T10:46:31.911Z,568.13
2024-04-11T10:47:31.968Z,601.88
2024-04-11T10:48:32.036Z,635.63
2024-04-11T10:49:32.035Z,663.75
2024-04-11T10:50:32.113Z,691.88
2024-04-11T10:51:32.142Z,714.38
2024-04-11T10:52:32.206Z,731.25
2024-04-11T10:53:32.294Z,725.63
2024-04-11T10:54:32.324Z,720.00
2024-04-11T10:55:32.377Z,697.50
2024-04-11T10:56:32.481Z,669.38
2024-04-11T10:57:32.492Z,635.63
2024-04-11T10:58:32.557Z,613.13
2024-04-11T10:59:32.631Z,601.88
2024-04-11T11:00:32.668Z,596.25
2024-04-11T11:01:33.958Z,579.38
2024-04-11T11:02:32.850Z,562.50
2024-04-11T11:03:32.991Z,540.00
2024-04-11T11:04:32.973Z,517.50
2024-04-11T11:05:32.975Z,506.25
2024-04-11T11:06:34.166Z,506.25
2024-04-11T11:07:33.485Z,517.50
2024-04-11T11:08:33.147Z,540.00
2024-04-11T11:09:33.178Z,568.13
2024-04-11T11:10:33.286Z,585.00
2024-04-11T11:11:33.399Z,596.25
2024-04-11T11:12:33.378Z,607.50
2024-04-11T11:13:33.407Z,607.50
2024-04-11T11:14:33.488Z,596.25
2024-04-11T11:15:33.523Z,579.38
2024-04-11T11:16:33.582Z,562.50
2024-04-11T11:17:33.716Z,556.88
2024-04-11T11:18:33.803Z,540.00
2024-04-11T11:19:33.771Z,540.00
2024-04-11T11:20:33.872Z,551.25
2024-04-11T11:21:33.875Z,562.50
2024-04-11T11:22:33.936Z,590.63
2024-04-11T11:23:34.017Z,624.38
2024-04-11T11:24:34.035Z,646.88
2024-04-11T11:25:34.163Z,669.38
2024-04-11T11:26:34.162Z,675.00
2024-04-11T11:27:34.515Z,680.63
2024-04-11T11:28:34.304Z,691.88
2024-04-11T11:29:34.341Z,708.75
2024-04-11T11:30:34.391Z,725.63
2024-04-11T11:31:34.443Z,748.13
2024-04-11T11:32:34.622Z,776.25
2024-04-11T11:33:34.658Z,804.38
2024-04-11T11:34:34.629Z,832.50
2024-04-11T11:35:34.700Z,838.13
2024-04-11T11:36:34.727Z,821.25
2024-04-11T11:37:34.781Z,787.50
2024-04-11T11:38:34.931Z,759.38
2024-04-11T11:39:34.973Z,770.63
2024-04-11T11:40:34.963Z,815.63
2024-04-11T11:41:35.041Z,866.25
2024-04-11T11:42:35.071Z,922.50
2024-04-11T11:43:35.137Z,973.13
2024-04-11T11:44:35.232Z,1018.13
2024-04-11T11:45:35.246Z,1035.00
2024-04-11T11:46:35.307Z,1057.50
2024-04-11T11:47:36.030Z,1063.13
2024-04-11T11:48:35.557Z,1080.00
2024-04-11T11:49:35.514Z,1080.00
2024-04-11T11:50:35.566Z,1074.38
2024-04-11T11:51:35.609Z,1068.75
2024-04-11T11:52:35.661Z,1040.63
2024-04-11T11:53:35.772Z,1074.38
2024-04-11T11:54:35.775Z,1136.25
2024-04-11T11:55:36.281Z,1006.88
2024-04-11T11:56:35.929Z,945.00
2024-04-11T11:57:35.954Z,911.25
2024-04-11T11:58:36.016Z,961.88
2024-04-11T11:59:36.127Z,1006.88
2024-04-11T12:00:36.367Z,967.50
2024-04-11T12:01:36.188Z,877.50
2024-04-11T12:02:36.304Z,793.13
2024-04-11T12:03:39.499Z,725.63
2024-04-11T12:04:36.381Z,686.25
2024-04-11T12:05:36.442Z,663.75
2024-04-11T12:06:36.496Z,641.25
2024-04-11T12:07:36.558Z,635.63
2024-04-11T12:08:36.611Z,641.25
2024-04-11T12:09:36.650Z,646.88
2024-04-11T12:10:36.713Z,658.13
2024-04-11T12:11:36.814Z,669.38
2024-04-11T12:12:44.934Z,680.63
2024-04-11T12:13:36.952Z,686.25
2024-04-11T12:14:37.012Z,697.50
2024-04-11T12:15:36.999Z,708.75
2024-04-11T12:16:37.141Z,720.00
2024-04-11T12:17:37.199Z,736.88
2024-04-11T12:18:37.245Z,759.38
2024-04-11T12:19:37.625Z,815.63
2024-04-11T12:20:37.303Z,900.00
2024-04-11T12:21:37.353Z,978.75
2024-04-11T12:22:37.412Z,995.63
2024-04-11T12:23:37.502Z,1023.75
2024-04-11T12:24:37.541Z,1057.50
2024-04-11T12:25:37.590Z,1057.50
2024-04-11T12:26:37.679Z,1018.13
2024-04-11T12:27:37.711Z,990.00
2024-04-11T12:28:37.764Z,1001.25
2024-04-11T12:29:37.839Z,995.63
2024-04-11T12:30:37.884Z,967.50
2024-04-11T12:31:37.941Z,928.13
2024-04-11T12:32:38.059Z,922.50
2024-04-11T12:33:38.112Z,939.38
2024-04-11T12:34:38.138Z,945.00
2024-04-11T12:35:38.221Z,967.50
2024-04-11T12:36:38.236Z,995.63
2024-04-11T12:37:38.293Z,1001.25
2024-04-11T12:38:38.402Z,1012.50
2024-04-11T12:39:38.410Z,1057.50
2024-04-11T12:40:38.462Z,1136.25
2024-04-11T12:41:38.555Z,1271.25
2024-04-11T12:42:38.582Z,1327.50
2024-04-11T12:43:38.639Z,1282.50
2024-04-11T12:44:39.057Z,1355.63
2024-04-11T12:45:38.757Z,1338.75
2024-04-11T12:46:38.817Z,1355.63
2024-04-11T12:47:39.019Z,1316.25
2024-04-11T12:48:38.987Z,1338.75
2024-04-11T12:49:38.993Z,1327.50
2024-04-11T12:50:39.090Z,1501.88
2024-04-11T12:51:39.116Z,1389.38
2024-04-11T12:52:39.181Z,1400.63
2024-04-11T12:53:39.247Z,1288.13
2024-04-11T12:54:39.293Z,1299.38
2024-04-11T12:55:39.351Z,1321.88
2024-04-11T12:56:39.445Z,1355.63